Saos II — SWZF — position and weather

sailwx.info

Track history (hours):
 
Tides and Currents Weather Stations Pressure Air Temp Water Temp Dewpoint Dewpoint Depression Visibility Wind Speed Wind Dir Waves Ship Positions

Saos II

Last reported at 2017-Nov-17 16:57 UTC. Time now 2017-Nov-19 04:59 UTC.
Position N 40°32' E 025°31'.

Length 75 m; draft 4.5 m.

Type: Passenger vessel. MMSI: 237352400.

Date/timePositionNaut miles runAvg speedWind from/ knotsBaromVisibWave heightAir tempDewpointWater temp
2017-Nov-17 16:57N 40°32' E 025°31'4 9.6
2017-Nov-17 16:30N 40°28' E 025°28'0 0.3
2017-Nov-17 15:49N 40°28' E 025°28'0 0.0
2017-Nov-16 04:20N 40°29' E 025°28'0 0.1
2017-Nov-16 01:31N 40°28' E 025°28'0 0.3
2017-Nov-16 01:30N 40°28' E 025°28'0 0.0
2017-Nov-15 23:25N 40°28' E 025°28'0 0.0
2017-Nov-15 22:58N 40°28' E 025°28'0 0.0
2017-Nov-15 19:33N 40°28' E 025°28'0 0.1
2017-Nov-15 19:30N 40°28' E 025°28'0 0.0
2017-Nov-15 19:00N 40°28' E 025°28'0 0.0
2017-Nov-15 18:30N 40°28' E 025°28'0 0.0
2017-Nov-15 16:50N 40°28' E 025°28'0 0.0
2017-Nov-15 06:06N 40°28' E 025°28'0 0.0
2017-Nov-15 00:07N 40°28' E 025°28'0 0.0
2017-Nov-14 23:59N 40°28' E 025°28'0 0.0
2017-Nov-14 14:18N 40°28' E 025°28'0 0.0
2017-Nov-14 13:57N 40°28' E 025°28'0 0.0
2017-Nov-14 12:47N 40°28' E 025°28'0 0.1
2017-Nov-14 11:24N 40°28' E 025°28'2 0.0
2017-Nov-12 15:15N 40°30' E 025°29'2 5.7
2017-Nov-12 14:57N 40°28' E 025°28'0 0.0
2017-Nov-12 04:59N 40°28' E 025°28'0 0.0
2017-Nov-12 04:30N 40°28' E 025°28'0 0.0
2017-Nov-12 04:00N 40°28' E 025°28'0 0.0
2017-Nov-12 03:29N 40°28' E 025°28'0 0.0
2017-Nov-11 23:18N 40°28' E 025°28'0 0.0
2017-Nov-11 23:00N 40°28' E 025°28'0 0.0
2017-Nov-11 22:31N 40°28' E 025°28'0 0.0
2017-Nov-11 22:00N 40°28' E 025°28'0 0.0
2017-Nov-11 20:34N 40°28' E 025°28'0 0.0
2017-Nov-11 20:29N 40°28' E 025°28'0 0.0
2017-Nov-11 20:00N 40°28' E 025°28'0 0.0
2017-Nov-11 19:30N 40°28' E 025°28'0 0.0
2017-Nov-11 17:22N 40°28' E 025°28'0 0.0
2017-Nov-11 16:55N 40°28' E 025°28'0 0.0
2017-Nov-11 16:31N 40°28' E 025°28'0 0.0
2017-Nov-11 15:58N 40°28' E 025°28'0 0.0
2017-Nov-11 15:14N 40°28' E 025°28'0 0.0
2017-Nov-11 15:00N 40°28' E 025°28'4 0.6
2017-Nov-11 07:29N 40°32' E 025°31'4 0.6
2017-Nov-11 00:28N 40°28' E 025°28'0 0.0
2017-Nov-10 23:42N 40°28' E 025°28'0 0.0
2017-Nov-10 23:26N 40°28' E 025°28'0 0.0
2017-Nov-10 22:59N 40°28' E 025°28'0 0.0
2017-Nov-10 22:28N 40°28' E 025°28'0 0.0
2017-Nov-10 21:59N 40°28' E 025°28'3 0.3
2017-Nov-10 08:25N 40°31' E 025°31'3 8.5
2017-Nov-10 08:00N 40°28' E 025°28'0 0.0
2017-Nov-09 21:14N 40°28' E 025°28'0 0.0
2017-Nov-09 20:42N 40°28' E 025°28'0 0.0
2017-Nov-09 20:13N 40°28' E 025°28'0 0.0
2017-Nov-09 19:43N 40°28' E 025°28'0 0.0
2017-Nov-09 19:30N 40°28' E 025°28'0 0.0
2017-Nov-09 18:59N 40°28' E 025°28'0 0.0
2017-Nov-09 18:28N 40°28' E 025°28'0 0.0
2017-Nov-09 17:37N 40°28' E 025°28'0 0.0
2017-Nov-09 17:18N 40°28' E 025°28'0 0.0
2017-Nov-09 16:59N 40°28' E 025°28'0 0.0
2017-Nov-09 15:56N 40°28' E 025°28'1 0.9
2017-Nov-09 15:16N 40°29' E 025°28'1 0.0
2017-Nov-08 23:26N 40°28' E 025°28'6 0.7
2017-Nov-08 13:37N 40°34' E 025°33'  
Track history (hours):
 
Tides and Currents Weather Stations Pressure Air Temp Water Temp Dewpoint Dewpoint Depression Visibility Wind Speed Wind Dir Waves Ship Positions

Saos II

Last reported at 2017-Nov-17 16:57 UTC. Time now 2017-Nov-19 04:59 UTC.
Position N 40°32' E 025°31'.

Length 75 m; draft 4.5 m.

Type: Passenger vessel. MMSI: 237352400.

Date/timePositionNaut miles runAvg speedWind from/ knotsBaromVisibWave heightAir tempDewpointWater temp
2017-Nov-17 16:57N 40°32' E 025°31'4 9.6
2017-Nov-17 16:30N 40°28' E 025°28'0 0.3
2017-Nov-17 15:49N 40°28' E 025°28'0 0.0
2017-Nov-16 04:20N 40°29' E 025°28'0 0.1
2017-Nov-16 01:31N 40°28' E 025°28'0 0.3
2017-Nov-16 01:30N 40°28' E 025°28'0 0.0
2017-Nov-15 23:25N 40°28' E 025°28'0 0.0
2017-Nov-15 22:58N 40°28' E 025°28'0 0.0
2017-Nov-15 19:33N 40°28' E 025°28'0 0.1
2017-Nov-15 19:30N 40°28' E 025°28'0 0.0
2017-Nov-15 19:00N 40°28' E 025°28'0 0.0
2017-Nov-15 18:30N 40°28' E 025°28'0 0.0
2017-Nov-15 16:50N 40°28' E 025°28'0 0.0
2017-Nov-15 06:06N 40°28' E 025°28'0 0.0
2017-Nov-15 00:07N 40°28' E 025°28'0 0.0
2017-Nov-14 23:59N 40°28' E 025°28'0 0.0
2017-Nov-14 14:18N 40°28' E 025°28'0 0.0
2017-Nov-14 13:57N 40°28' E 025°28'0 0.0
2017-Nov-14 12:47N 40°28' E 025°28'0 0.1
2017-Nov-14 11:24N 40°28' E 025°28'2 0.0
2017-Nov-12 15:15N 40°30' E 025°29'2 5.7
2017-Nov-12 14:57N 40°28' E 025°28'0 0.0
2017-Nov-12 04:59N 40°28' E 025°28'0 0.0
2017-Nov-12 04:30N 40°28' E 025°28'0 0.0
2017-Nov-12 04:00N 40°28' E 025°28'0 0.0
2017-Nov-12 03:29N 40°28' E 025°28'0 0.0
2017-Nov-11 23:18N 40°28' E 025°28'0 0.0
2017-Nov-11 23:00N 40°28' E 025°28'0 0.0
2017-Nov-11 22:31N 40°28' E 025°28'0 0.0
2017-Nov-11 22:00N 40°28' E 025°28'0 0.0
2017-Nov-11 20:34N 40°28' E 025°28'0 0.0
2017-Nov-11 20:29N 40°28' E 025°28'0 0.0
2017-Nov-11 20:00N 40°28' E 025°28'0 0.0
2017-Nov-11 19:30N 40°28' E 025°28'0 0.0
2017-Nov-11 17:22N 40°28' E 025°28'0 0.0
2017-Nov-11 16:55N 40°28' E 025°28'0 0.0
2017-Nov-11 16:31N 40°28' E 025°28'0 0.0
2017-Nov-11 15:58N 40°28' E 025°28'0 0.0
2017-Nov-11 15:14N 40°28' E 025°28'0 0.0
2017-Nov-11 15:00N 40°28' E 025°28'4 0.6
2017-Nov-11 07:29N 40°32' E 025°31'4 0.6
2017-Nov-11 00:28N 40°28' E 025°28'0 0.0
2017-Nov-10 23:42N 40°28' E 025°28'0 0.0
2017-Nov-10 23:26N 40°28' E 025°28'0 0.0
2017-Nov-10 22:59N 40°28' E 025°28'0 0.0
2017-Nov-10 22:28N 40°28' E 025°28'0 0.0
2017-Nov-10 21:59N 40°28' E 025°28'3 0.3
2017-Nov-10 08:25N 40°31' E 025°31'3 8.5
2017-Nov-10 08:00N 40°28' E 025°28'0 0.0
2017-Nov-09 21:14N 40°28' E 025°28'0 0.0
2017-Nov-09 20:42N 40°28' E 025°28'0 0.0
2017-Nov-09 20:13N 40°28' E 025°28'0 0.0
2017-Nov-09 19:43N 40°28' E 025°28'0 0.0
2017-Nov-09 19:30N 40°28' E 025°28'0 0.0
2017-Nov-09 18:59N 40°28' E 025°28'0 0.0
2017-Nov-09 18:28N 40°28' E 025°28'0 0.0
2017-Nov-09 17:37N 40°28' E 025°28'0 0.0
2017-Nov-09 17:18N 40°28' E 025°28'0 0.0
2017-Nov-09 16:59N 40°28' E 025°28'0 0.0
2017-Nov-09 15:56N 40°28' E 025°28'1 0.9
2017-Nov-09 15:16N 40°29' E 025°28'1 0.0
2017-Nov-08 23:26N 40°28' E 025°28'6 0.7
2017-Nov-08 13:37N 40°34' E 025°33'  

Dump ship's entire track history